sensor_id;sensor_type;location;lat;lon;timestamp;pressure;altitude;pressure_sealevel;temperature;humidity
7433;BME280;32233;49.500;7.764;2022-12-18T00:01:52;99617.81;;;-10.62;100.00
7433;BME280;32233;49.500;7.764;2022-12-18T00:04:22;99617.22;;;-10.72;99.86
7433;BME280;32233;49.500;7.764;2022-12-18T00:06:50;99619.97;;;-10.80;99.85
7433;BME280;32233;49.500;7.764;2022-12-18T00:09:16;99619.91;;;-10.77;100.00
7433;BME280;32233;49.500;7.764;2022-12-18T00:11:43;99613.91;;;-10.76;99.93
7433;BME280;32233;49.500;7.764;2022-12-18T00:14:13;99620.75;;;-10.76;99.36
7433;BME280;32233;49.500;7.764;2022-12-18T00:16:42;99624.09;;;-11.08;98.99
7433;BME280;32233;49.500;7.764;2022-12-18T00:19:09;99619.28;;;-11.20;100.00
7433;BME280;32233;49.500;7.764;2022-12-18T00:21:39;99619.59;;;-10.99;100.00
7433;BME280;32233;49.500;7.764;2022-12-18T00:24:06;99621.72;;;-11.16;99.11
7433;BME280;32233;49.500;7.764;2022-12-18T00:26:34;99632.72;;;-11.12;100.00
7433;BME280;32233;49.500;7.764;2022-12-18T00:29:08;99629.44;;;-10.83;99.67
7433;BME280;32233;49.500;7.764;2022-12-18T00:31:35;99636.31;;;-10.85;99.55
7433;BME280;32233;49.500;7.764;2022-12-18T00:34:02;99639.47;;;-10.76;99.65
7433;BME280;32233;49.500;7.764;2022-12-18T00:36:31;99642.25;;;-10.85;99.25
7433;BME280;32233;49.500;7.764;2022-12-18T00:38:59;99641.69;;;-10.96;99.59
7433;BME280;32233;49.500;7.764;2022-12-18T00:41:26;99643.13;;;-10.86;99.89
7433;BME280;32233;49.500;7.764;2022-12-18T00:44:14;99633.56;;;-10.78;98.88
7433;BME280;32233;49.500;7.764;2022-12-18T00:46:41;99631.94;;;-11.16;99.74
7433;BME280;32233;49.500;7.764;2022-12-18T00:49:09;99639.53;;;-11.13;100.00
7433;BME280;32233;49.500;7.764;2022-12-18T00:51:35;99637.44;;;-10.63;99.64
7433;BME280;32233;49.500;7.764;2022-12-18T00:54:02;99640.03;;;-10.99;99.10
7433;BME280;32233;49.500;7.764;2022-12-18T00:56:29;99639.88;;;-10.92;100.00
7433;BME280;32233;49.500;7.764;2022-12-18T00:58:56;99638.69;;;-11.13;100.00
7433;BME280;32233;49.500;7.764;2022-12-18T01:01:22;99629.81;;;-10.99;100.00
7433;BME280;32233;49.500;7.764;2022-12-18T01:03:49;99629.63;;;-10.91;99.96
7433;BME280;32233;49.500;7.764;2022-12-18T01:06:16;99618.69;;;-10.96;99.38
7433;BME280;32233;49.500;7.764;2022-12-18T01:08:43;99609.31;;;-10.95;99.91
7433;BME280;32233;49.500;7.764;2022-12-18T01:11:17;99617.97;;;-11.01;100.00
7433;BME280;32233;49.500;7.764;2022-12-18T01:13:44;99613.44;;;-10.90;99.38
7433;BME280;32233;49.500;7.764;2022-12-18T01:16:12;99624.31;;;-10.83;99.31
7433;BME280;32233;49.500;7.764;2022-12-18T01:18:39;99617.84;;;-10.96;98.74
7433;BME280;32233;49.500;7.764;2022-12-18T01:21:08;99624.16;;;-11.11;100.00
7433;BME280;32233;49.500;7.764;2022-12-18T01:23:36;99624.22;;;-11.13;99.92
7433;BME280;32233;49.500;7.764;2022-12-18T01:26:11;99615.78;;;-11.16;100.00
7433;BME280;32233;49.500;7.764;2022-12-18T01:28:39;99625.56;;;-11.34;100.00
7433;BME280;32233;49.500;7.764;2022-12-18T01:31:35;99622.72;;;-11.21;100.00
7433;BME280;32233;49.500;7.764;2022-12-18T01:34:04;99622.44;;;-11.09;99.51
7433;BME280;32233;49.500;7.764;2022-12-18T01:36:38;99622.97;;;-11.32;100.00
7433;BME280;32233;49.500;7.764;2022-12-18T01:39:07;99630.63;;;-11.32;100.00
7433;BME280;32233;49.500;7.764;2022-12-18T01:41:35;99624.78;;;-11.37;100.00
7433;BME280;32233;49.500;7.764;2022-12-18T01:44:51;99625.75;;;-11.41;100.00
7433;BME280;32233;49.500;7.764;2022-12-18T01:47:38;99635.19;;;-11.09;100.00
7433;BME280;32233;49.500;7.764;2022-12-18T01:50:38;99650.03;;;-10.89;100.00
7433;BME280;32233;49.500;7.764;2022-12-18T01:53:10;99659.19;;;-10.82;100.00
7433;BME280;32233;49.500;7.764;2022-12-18T01:55:43;99659.00;;;-10.73;100.00
7433;BME280;32233;49.500;7.764;2022-12-18T01:58:11;99653.78;;;-10.70;100.00
7433;BME280;32233;49.500;7.764;2022-12-18T02:00:37;99657.72;;;-10.57;100.00
7433;BME280;32233;49.500;7.764;2022-12-18T02:03:04;99661.50;;;-10.71;100.00
7433;BME280;32233;49.500;7.764;2022-12-18T02:05:53;99668.81;;;-10.58;100.00
7433;BME280;32233;49.500;7.764;2022-12-18T02:11:22;99647.13;;;-10.43;100.00
7433;BME280;32233;49.500;7.764;2022-12-18T02:14:34;99650.06;;;-10.57;100.00
7433;BME280;32233;49.500;7.764;2022-12-18T02:17:07;99649.75;;;-10.15;100.00
7433;BME280;32233;49.500;7.764;2022-12-18T02:27:50;99651.47;;;-10.15;100.00
7433;BME280;32233;49.500;7.764;2022-12-18T02:30:20;99656.59;;;-10.17;100.00
7433;BME280;32233;49.500;7.764;2022-12-18T02:32:52;99648.34;;;-10.25;100.00
7433;BME280;32233;49.500;7.764;2022-12-18T02:35:22;99645.78;;;-10.25;100.00
7433;BME280;32233;49.500;7.764;2022-12-18T02:37:53;99635.19;;;-10.42;100.00
7433;BME280;32233;49.500;7.764;2022-12-18T02:40:22;99619.78;;;-10.39;100.00
7433;BME280;32233;49.500;7.764;2022-12-18T02:42:50;99612.66;;;-10.28;100.00
7433;BME280;32233;49.500;7.764;2022-12-18T02:45:18;99615.44;;;-10.37;100.00
7433;BME280;32233;49.500;7.764;2022-12-18T02:47:48;99623.00;;;-10.33;100.00
7433;BME280;32233;49.500;7.764;2022-12-18T03:02:06;99595.63;;;-10.29;100.00
7433;BME280;32233;49.500;7.764;2022-12-18T03:07:33;99626.09;;;-10.23;100.00
7433;BME280;32233;49.500;7.764;2022-12-18T03:10:02;99622.78;;;-10.25;100.00
7433;BME280;32233;49.500;7.764;2022-12-18T03:12:35;99620.78;;;-10.15;100.00
7433;BME280;32233;49.500;7.764;2022-12-18T03:15:13;99631.31;;;-10.25;100.00
7433;BME280;32233;49.500;7.764;2022-12-18T03:17:50;99613.19;;;-10.18;100.00
7433;BME280;32233;49.500;7.764;2022-12-18T03:20:21;99616.78;;;-10.24;100.00
7433;BME280;32233;49.500;7.764;2022-12-18T03:22:57;99610.22;;;-10.05;100.00
7433;BME280;32233;49.500;7.764;2022-12-18T03:25:25;99609.84;;;-10.20;100.00
7433;BME280;32233;49.500;7.764;2022-12-18T03:27:56;99615.81;;;-10.20;100.00
7433;BME280;32233;49.500;7.764;2022-12-18T03:30:25;99607.50;;;-10.27;100.00
7433;BME280;32233;49.500;7.764;2022-12-18T03:35:29;99602.00;;;-10.44;100.00
7433;BME280;32233;49.500;7.764;2022-12-18T03:37:58;99607.88;;;-10.40;100.00
7433;BME280;32233;49.500;7.764;2022-12-18T03:40:34;99602.06;;;-10.17;100.00
7433;BME280;32233;49.500;7.764;2022-12-18T03:43:12;99612.16;;;-10.13;100.00
7433;BME280;32233;49.500;7.764;2022-12-18T03:45:48;99603.63;;;-10.12;100.00
7433;BME280;32233;49.500;7.764;2022-12-18T03:48:19;99617.59;;;-10.24;100.00
7433;BME280;32233;49.500;7.764;2022-12-18T03:50:59;99607.25;;;-10.19;100.00
7433;BME280;32233;49.500;7.764;2022-12-18T03:56:04;99615.59;;;-9.84;100.00
7433;BME280;32233;49.500;7.764;2022-12-18T03:58:37;99605.72;;;-9.97;100.00
7433;BME280;32233;49.500;7.764;2022-12-18T04:01:50;99607.16;;;-10.16;100.00
7433;BME280;32233;49.500;7.764;2022-12-18T04:04:19;99614.38;;;-10.01;100.00
7433;BME280;32233;49.500;7.764;2022-12-18T04:06:48;99619.28;;;-10.23;100.00
7433;BME280;32233;49.500;7.764;2022-12-18T04:09:19;99612.84;;;-10.36;100.00
7433;BME280;32233;49.500;7.764;2022-12-18T04:11:47;99615.00;;;-10.22;100.00
7433;BME280;32233;49.500;7.764;2022-12-18T04:14:15;99612.84;;;-10.36;100.00
7433;BME280;32233;49.500;7.764;2022-12-18T04:16:43;99607.75;;;-10.36;100.00
7433;BME280;32233;49.500;7.764;2022-12-18T04:19:14;99622.72;;;-10.53;100.00
7433;BME280;32233;49.500;7.764;2022-12-18T04:21:42;99617.75;;;-10.59;100.00
7433;BME280;32233;49.500;7.764;2022-12-18T04:24:10;99609.94;;;-10.53;100.00
7433;BME280;32233;49.500;7.764;2022-12-18T04:26:43;99606.88;;;-10.67;100.00
7433;BME280;32233;49.500;7.764;2022-12-18T04:29:14;99597.03;;;-10.50;100.00
7433;BME280;32233;49.500;7.764;2022-12-18T04:31:41;99605.22;;;-10.37;100.00
7433;BME280;32233;49.500;7.764;2022-12-18T04:34:08;99604.69;;;-10.49;100.00
7433;BME280;32233;49.500;7.764;2022-12-18T04:36:41;99612.50;;;-10.55;100.00
7433;BME280;32233;49.500;7.764;2022-12-18T04:39:07;99604.28;;;-10.66;100.00
7433;BME280;32233;49.500;7.764;2022-12-18T04:41:34;99608.09;;;-10.48;100.00
7433;BME280;32233;49.500;7.764;2022-12-18T04:44:02;99595.03;;;-10.39;100.00
7433;BME280;32233;49.500;7.764;2022-12-18T04:46:28;99603.59;;;-10.40;100.00
7433;BME280;32233;49.500;7.764;2022-12-18T04:48:55;99612.19;;;-10.42;100.00
7433;BME280;32233;49.500;7.764;2022-12-18T04:51:21;99617.38;;;-10.45;100.00
7433;BME280;32233;49.500;7.764;2022-12-18T04:53:52;99616.72;;;-10.54;100.00
7433;BME280;32233;49.500;7.764;2022-12-18T04:56:19;99620.41;;;-10.31;100.00
7433;BME280;32233;49.500;7.764;2022-12-18T04:58:46;99616.53;;;-10.46;100.00
7433;BME280;32233;49.500;7.764;2022-12-18T05:01:14;99618.59;;;-10.28;100.00
7433;BME280;32233;49.500;7.764;2022-12-18T05:03:41;99616.31;;;-10.37;100.00
7433;BME280;32233;49.500;7.764;2022-12-18T05:06:08;99617.34;;;-10.44;100.00
7433;BME280;32233;49.500;7.764;2022-12-18T05:08:35;99606.72;;;-10.29;100.00
7433;BME280;32233;49.500;7.764;2022-12-18T05:11:05;99604.75;;;-10.20;100.00
7433;BME280;32233;49.500;7.764;2022-12-18T05:13:33;99607.78;;;-10.08;100.00
7433;BME280;32233;49.500;7.764;2022-12-18T05:16:00;99602.00;;;-10.14;100.00
7433;BME280;32233;49.500;7.764;2022-12-18T05:18:27;99603.03;;;-10.22;100.00
7433;BME280;32233;49.500;7.764;2022-12-18T05:20:54;99598.75;;;-10.21;100.00
7433;BME280;32233;49.500;7.764;2022-12-18T05:23:22;99596.09;;;-10.16;100.00
7433;BME280;32233;49.500;7.764;2022-12-18T05:25:54;99607.25;;;-10.19;100.00
7433;BME280;32233;49.500;7.764;2022-12-18T05:28:22;99602.44;;;-10.28;100.00
7433;BME280;32233;49.500;7.764;2022-12-18T05:30:54;99593.53;;;-10.16;100.00
7433;BME280;32233;49.500;7.764;2022-12-18T05:33:23;99596.38;;;-10.26;100.00
7433;BME280;32233;49.500;7.764;2022-12-18T05:35:51;99593.28;;;-10.09;100.00
7433;BME280;32233;49.500;7.764;2022-12-18T05:38:19;99600.41;;;-10.18;100.00
7433;BME280;32233;49.500;7.764;2022-12-18T05:40:47;99604.69;;;-10.19;100.00
7433;BME280;32233;49.500;7.764;2022-12-18T05:43:14;99609.84;;;-10.20;100.00
7433;BME280;32233;49.500;7.764;2022-12-18T05:45:47;99617.56;;;-10.22;100.00
7433;BME280;32233;49.500;7.764;2022-12-18T05:48:14;99622.88;;;-10.28;100.00
7433;BME280;32233;49.500;7.764;2022-12-18T05:50:43;99632.88;;;-10.20;100.00
7433;BME280;32233;49.500;7.764;2022-12-18T05:53:14;99632.16;;;-10.26;100.00
7433;BME280;32233;49.500;7.764;2022-12-18T05:55:42;99637.78;;;-10.14;100.00
7433;BME280;32233;49.500;7.764;2022-12-18T05:58:10;99640.66;;;-10.25;100.00
7433;BME280;32233;49.500;7.764;2022-12-18T06:00:39;99638.38;;;-10.34;100.00
7433;BME280;32233;49.500;7.764;2022-12-18T06:03:09;99642.50;;;-10.29;100.00
7433;BME280;32233;49.500;7.764;2022-12-18T06:05:38;99639.13;;;-10.31;100.00
7433;BME280;32233;49.500;7.764;2022-12-18T06:08:05;99646.50;;;-10.20;100.00
7433;BME280;32233;49.500;7.764;2022-12-18T06:10:32;99645.25;;;-10.36;100.00
7433;BME280;32233;49.500;7.764;2022-12-18T06:12:59;99644.16;;;-10.28;100.00
7433;BME280;32233;49.500;7.764;2022-12-18T06:15:26;99658.31;;;-10.47;100.00
7433;BME280;32233;49.500;7.764;2022-12-18T06:17:52;99664.56;;;-10.59;100.00
7433;BME280;32233;49.500;7.764;2022-12-18T06:20:19;99673.06;;;-10.58;100.00
7433;BME280;32233;49.500;7.764;2022-12-18T06:22:45;99677.47;;;-10.63;100.00
7433;BME280;32233;49.500;7.764;2022-12-18T06:25:12;99683.41;;;-10.61;100.00
7433;BME280;32233;49.500;7.764;2022-12-18T06:27:38;99679.16;;;-10.62;100.00
7433;BME280;32233;49.500;7.764;2022-12-18T06:30:07;99681.81;;;-10.67;100.00
7433;BME280;32233;49.500;7.764;2022-12-18T06:32:34;99674.97;;;-10.65;100.00
7433;BME280;32233;49.500;7.764;2022-12-18T06:35:01;99667.78;;;-10.51;100.00
7433;BME280;32233;49.500;7.764;2022-12-18T06:37:27;99661.94;;;-10.56;100.00
7433;BME280;32233;49.500;7.764;2022-12-18T06:39:54;99650.38;;;-10.69;100.00
7433;BME280;32233;49.500;7.764;2022-12-18T06:42:20;99655.50;;;-10.69;100.00
7433;BME280;32233;49.500;7.764;2022-12-18T06:44:47;99657.59;;;-10.52;100.00
7433;BME280;32233;49.500;7.764;2022-12-18T06:47:13;99651.09;;;-10.64;100.00
7433;BME280;32233;49.500;7.764;2022-12-18T06:49:40;99654.84;;;-10.79;100.00
7433;BME280;32233;49.500;7.764;2022-12-18T06:52:07;99657.59;;;-10.86;100.00
7433;BME280;32233;49.500;7.764;2022-12-18T06:54:33;99650.09;;;-10.92;100.00
7433;BME280;32233;49.500;7.764;2022-12-18T06:57:00;99649.09;;;-10.87;100.00
7433;BME280;32233;49.500;7.764;2022-12-18T06:59:26;99651.44;;;-10.78;100.00
7433;BME280;32233;49.500;7.764;2022-12-18T07:01:53;99653.72;;;-10.67;100.00
7433;BME280;32233;49.500;7.764;2022-12-18T07:04:20;99660.34;;;-10.60;100.00
7433;BME280;32233;49.500;7.764;2022-12-18T07:06:46;99661.25;;;-10.62;100.00
7433;BME280;32233;49.500;7.764;2022-12-18T07:09:13;99659.59;;;-10.63;100.00
7433;BME280;32233;49.500;7.764;2022-12-18T07:11:39;99653.06;;;-10.75;100.00
7433;BME280;32233;49.500;7.764;2022-12-18T07:14:06;99648.25;;;-10.86;100.00
7433;BME280;32233;49.500;7.764;2022-12-18T07:16:32;99658.72;;;-10.96;100.00
7433;BME280;32233;49.500;7.764;2022-12-18T07:18:59;99665.38;;;-10.91;100.00
7433;BME280;32233;49.500;7.764;2022-12-18T07:21:25;99662.88;;;-10.92;100.00
7433;BME280;32233;49.500;7.764;2022-12-18T07:23:52;99663.66;;;-10.90;100.00
7433;BME280;32233;49.500;7.764;2022-12-18T07:26:19;99667.38;;;-11.02;100.00
7433;BME280;32233;49.500;7.764;2022-12-18T07:28:47;99671.44;;;-10.95;100.00
7433;BME280;32233;49.500;7.764;2022-12-18T07:31:16;99680.69;;;-10.91;100.00
7433;BME280;32233;49.500;7.764;2022-12-18T07:33:44;99679.97;;;-10.96;100.00
7433;BME280;32233;49.500;7.764;2022-12-18T07:36:11;99681.84;;;-11.03;100.00
7433;BME280;32233;49.500;7.764;2022-12-18T07:38:38;99686.94;;;-11.03;100.00
7433;BME280;32233;49.500;7.764;2022-12-18T07:41:09;99686.03;;;-11.00;100.00
7433;BME280;32233;49.500;7.764;2022-12-18T07:43:37;99687.88;;;-10.71;100.00
7433;BME280;32233;49.500;7.764;2022-12-18T07:46:05;99688.59;;;-11.00;100.00
7433;BME280;32233;49.500;7.764;2022-12-18T07:48:32;99681.50;;;-10.53;100.00
7433;BME280;32233;49.500;7.764;2022-12-18T07:50:59;99691.44;;;-10.77;100.00
7433;BME280;32233;49.500;7.764;2022-12-18T07:53:26;99695.31;;;-10.62;100.00
7433;BME280;32233;49.500;7.764;2022-12-18T07:55:57;99695.97;;;-10.54;100.00
7433;BME280;32233;49.500;7.764;2022-12-18T07:58:43;99697.44;;;-10.78;100.00
7433;BME280;32233;49.500;7.764;2022-12-18T08:01:12;99703.28;;;-10.40;100.00
7433;BME280;32233;49.500;7.764;2022-12-18T08:03:39;99713.63;;;-10.13;100.00
7433;BME280;32233;49.500;7.764;2022-12-18T08:06:09;99716.41;;;-9.90;100.00
7433;BME280;32233;49.500;7.764;2022-12-18T08:08:36;99721.94;;;-9.74;100.00
7433;BME280;32233;49.500;7.764;2022-12-18T08:11:02;99714.03;;;-9.96;100.00
7433;BME280;32233;49.500;7.764;2022-12-18T08:13:29;99706.34;;;-9.96;100.00
7433;BME280;32233;49.500;7.764;2022-12-18T08:16:09;99696.78;;;-9.89;100.00
7433;BME280;32233;49.500;7.764;2022-12-18T08:18:37;99691.50;;;-9.54;100.00
7433;BME280;32233;49.500;7.764;2022-12-18T08:21:18;99690.75;;;-9.29;100.00
7433;BME280;32233;49.500;7.764;2022-12-18T08:23:47;99672.16;;;-9.36;100.00
7433;BME280;32233;49.500;7.764;2022-12-18T08:26:15;99684.75;;;-9.28;100.00
7433;BME280;32233;49.500;7.764;2022-12-18T08:28:42;99672.41;;;-9.15;100.00
7433;BME280;32233;49.500;7.764;2022-12-18T08:31:10;99674.41;;;-8.99;99.48
7433;BME280;32233;49.500;7.764;2022-12-18T08:33:37;99673.72;;;-9.02;99.64
7433;BME280;32233;49.500;7.764;2022-12-18T08:36:05;99668.81;;;-9.10;100.00
7433;BME280;32233;49.500;7.764;2022-12-18T08:38:32;99668.03;;;-8.85;100.00
7433;BME280;32233;49.500;7.764;2022-12-18T08:41:03;99666.59;;;-8.67;99.29
7433;BME280;32233;49.500;7.764;2022-12-18T08:43:30;99654.09;;;-8.77;99.38
7433;BME280;32233;49.500;7.764;2022-12-18T08:46:16;99658.81;;;-8.91;100.00
7433;BME280;32233;49.500;7.764;2022-12-18T08:48:44;99648.81;;;-8.47;99.31
7433;BME280;32233;49.500;7.764;2022-12-18T08:51:11;99650.03;;;-8.57;100.00
7433;BME280;32233;49.500;7.764;2022-12-18T08:53:37;99645.69;;;-8.32;99.79
7433;BME280;32233;49.500;7.764;2022-12-18T08:56:05;99648.03;;;-8.49;100.00
7433;BME280;32233;49.500;7.764;2022-12-18T08:58:31;99656.00;;;-8.10;98.79
7433;BME280;32233;49.500;7.764;2022-12-18T09:01:02;99654.63;;;-7.95;97.17
7433;BME280;32233;49.500;7.764;2022-12-18T09:03:29;99662.28;;;-7.93;97.77
7433;BME280;32233;49.500;7.764;2022-12-18T09:05:56;99674.31;;;-8.19;98.38
7433;BME280;32233;49.500;7.764;2022-12-18T09:08:22;99675.34;;;-8.00;98.37
7433;BME280;32233;49.500;7.764;2022-12-18T09:10:51;99686.34;;;-7.96;97.91
7433;BME280;32233;49.500;7.764;2022-12-18T09:13:18;99693.78;;;-7.90;97.68
7433;BME280;32233;49.500;7.764;2022-12-18T09:15:47;99684.94;;;-7.58;96.53
7433;BME280;32233;49.500;7.764;2022-12-18T09:18:15;99687.56;;;-7.83;97.68
7433;BME280;32233;49.500;7.764;2022-12-18T09:20:43;99675.56;;;-7.82;98.54
7433;BME280;32233;49.500;7.764;2022-12-18T09:23:10;99690.25;;;-7.40;96.99
7433;BME280;32233;49.500;7.764;2022-12-18T09:25:37;99693.84;;;-7.44;96.78
7433;BME280;32233;49.500;7.764;2022-12-18T09:28:09;99697.84;;;-7.37;97.13
7433;BME280;32233;49.500;7.764;2022-12-18T09:30:37;99700.44;;;-6.93;95.55
7433;BME280;32233;49.500;7.764;2022-12-18T09:33:04;99704.34;;;-6.42;93.07
7433;BME280;32233;49.500;7.764;2022-12-18T09:35:32;99705.84;;;-5.96;89.53
7433;BME280;32233;49.500;7.764;2022-12-18T09:38:01;99707.72;;;-6.20;87.95
7433;BME280;32233;49.500;7.764;2022-12-18T09:40:35;99712.22;;;-5.86;87.97
7433;BME280;32233;49.500;7.764;2022-12-18T09:43:04;99716.34;;;-5.06;85.28
7433;BME280;32233;49.500;7.764;2022-12-18T09:45:44;99711.81;;;-4.65;81.17
7433;BME280;32233;49.500;7.764;2022-12-18T09:48:20;99714.25;;;-4.44;80.36
7433;BME280;32233;49.500;7.764;2022-12-18T09:50:50;99709.44;;;-5.06;79.97
7433;BME280;32233;49.500;7.764;2022-12-18T09:53:22;99717.72;;;-5.56;82.45
7433;BME280;32233;49.500;7.764;2022-12-18T09:55:51;99729.94;;;-5.21;81.10
7433;BME280;32233;49.500;7.764;2022-12-18T09:58:26;99723.88;;;-4.48;77.80
7433;BME280;32233;49.500;7.764;2022-12-18T10:00:55;99722.78;;;-5.34;82.59
7433;BME280;32233;49.500;7.764;2022-12-18T10:03:22;99719.53;;;-5.01;81.33
7433;BME280;32233;49.500;7.764;2022-12-18T10:06:29;99701.53;;;-5.03;81.97
7433;BME280;32233;49.500;7.764;2022-12-18T10:09:06;99700.03;;;-5.07;83.83
7433;BME280;32233;49.500;7.764;2022-12-18T10:14:20;99696.91;;;-4.60;82.45
7433;BME280;32233;49.500;7.764;2022-12-18T10:16:59;99695.63;;;-4.68;82.52
7433;BME280;32233;49.500;7.764;2022-12-18T10:19:36;99680.69;;;-3.94;77.76
7433;BME280;32233;49.500;7.764;2022-12-18T10:24:43;99655.94;;;-3.98;77.79
7433;BME280;32233;49.500;7.764;2022-12-18T10:27:18;99654.97;;;-3.64;76.89
7433;BME280;32233;49.500;7.764;2022-12-18T10:29:45;99659.47;;;-3.83;78.10
7433;BME280;32233;49.500;7.764;2022-12-18T10:32:17;99662.16;;;-3.06;74.23
7433;BME280;32233;49.500;7.764;2022-12-18T10:34:49;99659.25;;;-3.47;76.33
7433;BME280;32233;49.500;7.764;2022-12-18T10:37:27;99653.53;;;-1.87;68.46
7433;BME280;32233;49.500;7.764;2022-12-18T10:40:15;99661.50;;;-2.79;72.32
7433;BME280;32233;49.500;7.764;2022-12-18T10:43:03;99667.34;;;-3.21;74.15
7433;BME280;32233;49.500;7.764;2022-12-18T10:45:30;99678.91;;;-2.97;71.45
7433;BME280;32233;49.500;7.764;2022-12-18T10:47:57;99687.81;;;-4.50;78.32
7433;BME280;32233;49.500;7.764;2022-12-18T10:50:28;99691.06;;;-4.81;81.27
7433;BME280;32233;49.500;7.764;2022-12-18T10:53:20;99691.22;;;-5.03;83.47
7433;BME280;32233;49.500;7.764;2022-12-18T10:55:48;99692.41;;;-4.91;82.76
7433;BME280;32233;49.500;7.764;2022-12-18T10:58:32;99685.84;;;-4.44;80.39
7433;BME280;32233;49.500;7.764;2022-12-18T11:01:13;99686.75;;;-4.28;79.85
7433;BME280;32233;49.500;7.764;2022-12-18T11:03:58;99678.53;;;-4.19;79.99
7433;BME280;32233;49.500;7.764;2022-12-18T11:06:28;99669.97;;;-4.54;79.73
7433;BME280;32233;49.500;7.764;2022-12-18T11:09:00;99658.97;;;-4.58;79.58
7433;BME280;32233;49.500;7.764;2022-12-18T11:11:32;99651.69;;;-4.84;81.88
7433;BME280;32233;49.500;7.764;2022-12-18T11:16:32;99658.03;;;-4.74;82.84
7433;BME280;32233;49.500;7.764;2022-12-18T11:19:35;99660.16;;;-5.00;83.14
7433;BME280;32233;49.500;7.764;2022-12-18T11:22:19;99646.66;;;-5.05;83.84
7433;BME280;32233;49.500;7.764;2022-12-18T11:24:59;99647.59;;;-4.88;81.38
7433;BME280;32233;49.500;7.764;2022-12-18T11:27:49;99648.72;;;-5.30;85.12
7433;BME280;32233;49.500;7.764;2022-12-18T11:33:00;99640.19;;;-5.13;83.50
7433;BME280;32233;49.500;7.764;2022-12-18T11:35:40;99645.34;;;-5.13;86.33
7433;BME280;32233;49.500;7.764;2022-12-18T11:38:30;99647.19;;;-5.34;84.28
7433;BME280;32233;49.500;7.764;2022-12-18T11:46:18;99628.28;;;-5.16;85.51
7433;BME280;32233;49.500;7.764;2022-12-18T11:48:58;99627.00;;;-5.07;85.46
7433;BME280;32233;49.500;7.764;2022-12-18T11:51:35;99626.88;;;-4.87;83.44
7433;BME280;32233;49.500;7.764;2022-12-18T11:54:12;99631.66;;;-4.96;86.03
7433;BME280;32233;49.500;7.764;2022-12-18T11:59:24;99620.81;;;-4.86;85.90
7433;BME280;32233;49.500;7.764;2022-12-18T12:04:59;99611.56;;;-4.72;87.21
7433;BME280;32233;49.500;7.764;2022-12-18T12:08:00;99612.53;;;-4.75;90.15
7433;BME280;32233;49.500;7.764;2022-12-18T12:19:43;99625.13;;;-4.52;87.32
7433;BME280;32233;49.500;7.764;2022-12-18T12:25:33;99616.91;;;-4.94;89.23
7433;BME280;32233;49.500;7.764;2022-12-18T12:34:05;99603.84;;;-4.39;86.07
7433;BME280;32233;49.500;7.764;2022-12-18T12:36:44;99584.88;;;-4.38;86.75
7433;BME280;32233;49.500;7.764;2022-12-18T12:39:20;99589.81;;;-4.51;86.41
7433;BME280;32233;49.500;7.764;2022-12-18T12:41:48;99591.75;;;-4.72;89.29
7433;BME280;32233;49.500;7.764;2022-12-18T12:44:39;99585.38;;;-4.65;88.89
7433;BME280;32233;49.500;7.764;2022-12-18T12:47:24;99583.19;;;-4.39;87.04
7433;BME280;32233;49.500;7.764;2022-12-18T12:49:53;99578.59;;;-4.67;88.51
7433;BME280;32233;49.500;7.764;2022-12-18T12:52:36;99569.66;;;-4.60;89.30
7433;BME280;32233;49.500;7.764;2022-12-18T12:55:13;99566.41;;;-4.64;90.23
7433;BME280;32233;49.500;7.764;2022-12-18T12:57:46;99565.63;;;-4.66;90.16
7433;BME280;32233;49.500;7.764;2022-12-18T13:00:18;99571.88;;;-4.87;91.83
7433;BME280;32233;49.500;7.764;2022-12-18T13:03:07;99567.63;;;-4.88;92.46
7433;BME280;32233;49.500;7.764;2022-12-18T13:05:48;99559.53;;;-4.98;93.15
7433;BME280;32233;49.500;7.764;2022-12-18T13:10:51;99550.03;;;-4.80;92.19
7433;BME280;32233;49.500;7.764;2022-12-18T13:13:54;99545.56;;;-5.11;94.85
7433;BME280;32233;49.500;7.764;2022-12-18T13:16:23;99548.16;;;-4.94;94.12
7433;BME280;32233;49.500;7.764;2022-12-18T13:18:57;99549.19;;;-5.15;94.64
7433;BME280;32233;49.500;7.764;2022-12-18T13:21:28;99551.53;;;-5.11;94.94
7433;BME280;32233;49.500;7.764;2022-12-18T13:23:55;99552.41;;;-5.10;95.53
7433;BME280;32233;49.500;7.764;2022-12-18T13:28:56;99549.72;;;-4.91;94.47
7433;BME280;32233;49.500;7.764;2022-12-18T13:31:57;99543.44;;;-5.03;94.54
7433;BME280;32233;49.500;7.764;2022-12-18T13:34:29;99545.91;;;-5.19;95.81
7433;BME280;32233;49.500;7.764;2022-12-18T13:39:59;99547.28;;;-4.94;94.31
7433;BME280;32233;49.500;7.764;2022-12-18T13:45:46;99535.25;;;-5.11;94.64
7433;BME280;32233;49.500;7.764;2022-12-18T13:48:16;99538.28;;;-5.20;95.70
7433;BME280;32233;49.500;7.764;2022-12-18T13:50:48;99540.78;;;-5.02;95.76
7433;BME280;32233;49.500;7.764;2022-12-18T13:53:21;99541.75;;;-4.87;94.49
7433;BME280;32233;49.500;7.764;2022-12-18T13:55:51;99532.88;;;-5.16;94.99
7433;BME280;32233;49.500;7.764;2022-12-18T13:58:18;99529.25;;;-5.12;95.62
7433;BME280;32233;49.500;7.764;2022-12-18T14:00:44;99537.59;;;-5.24;96.36
7433;BME280;32233;49.500;7.764;2022-12-18T14:03:18;99540.25;;;-5.26;96.47
7433;BME280;32233;49.500;7.764;2022-12-18T14:06:03;99540.03;;;-5.21;96.49
7433;BME280;32233;49.500;7.764;2022-12-18T14:08:38;99542.00;;;-5.26;96.63
7433;BME280;32233;49.500;7.764;2022-12-18T14:11:06;99541.13;;;-5.44;97.22
7433;BME280;32233;49.500;7.764;2022-12-18T14:13:39;99538.72;;;-5.30;97.39
7433;BME280;32233;49.500;7.764;2022-12-18T14:16:13;99543.28;;;-5.35;96.65
7433;BME280;32233;49.500;7.764;2022-12-18T14:18:55;99539.50;;;-5.10;95.23
7433;BME280;32233;49.500;7.764;2022-12-18T14:21:37;99532.56;;;-5.44;96.97
7433;BME280;32233;49.500;7.764;2022-12-18T14:24:16;99533.56;;;-5.47;97.05
7433;BME280;32233;49.500;7.764;2022-12-18T14:26:45;99536.19;;;-5.49;97.24
7433;BME280;32233;49.500;7.764;2022-12-18T14:29:30;99537.34;;;-5.54;97.63
7433;BME280;32233;49.500;7.764;2022-12-18T14:34:48;99532.16;;;-5.71;98.82
7433;BME280;32233;49.500;7.764;2022-12-18T14:37:20;99533.03;;;-5.73;98.85
7433;BME280;32233;49.500;7.764;2022-12-18T14:40:00;99522.34;;;-5.82;99.27
7433;BME280;32233;49.500;7.764;2022-12-18T14:42:37;99524.94;;;-5.82;99.08
7433;BME280;32233;49.500;7.764;2022-12-18T14:45:35;99522.63;;;-5.88;99.67
7433;BME280;32233;49.500;7.764;2022-12-18T14:48:20;99531.81;;;-5.83;100.00
7433;BME280;32233;49.500;7.764;2022-12-18T14:51:00;99520.50;;;-5.61;98.86